sensor_id;sensor_type;location;lat;lon;timestamp;pressure;altitude;pressure_sealevel;temperature;humidity
69622;BME280;56841;55.964;37.674;2022-10-15T06:57:40;100430.19;;;7.48;71.60
69622;BME280;56841;55.964;37.674;2022-10-15T07:00:06;100425.63;;;7.71;70.98
69622;BME280;56841;55.964;37.674;2022-10-15T07:02:34;100430.44;;;7.87;69.92
69622;BME280;56841;55.964;37.674;2022-10-15T07:05:01;100437.06;;;8.12;69.35
69622;BME280;56841;55.964;37.674;2022-10-15T07:07:28;100429.53;;;8.28;68.52
69622;BME280;56841;55.964;37.674;2022-10-15T07:09:54;100430.50;;;8.27;68.20
69622;BME280;56841;55.964;37.674;2022-10-15T07:12:20;100429.81;;;8.35;68.54
69622;BME280;56841;55.964;37.674;2022-10-15T07:14:47;100431.06;;;8.31;67.76
69622;BME280;56841;55.964;37.674;2022-10-15T07:17:14;100427.25;;;8.45;67.63
69622;BME280;56841;55.964;37.674;2022-10-15T07:19:40;100422.97;;;8.53;66.42
69622;BME280;56841;55.964;37.674;2022-10-15T07:22:06;100428.25;;;8.63;66.31
69622;BME280;56841;55.964;37.674;2022-10-15T07:24:32;100429.28;;;8.72;66.42
69622;BME280;56841;55.964;37.674;2022-10-15T07:26:58;100426.91;;;8.78;66.51
69622;BME280;56841;55.964;37.674;2022-10-15T07:29:24;100434.84;;;8.98;65.76
69622;BME280;56841;55.964;37.674;2022-10-15T07:31:50;100436.78;;;9.06;65.32
69622;BME280;56841;55.964;37.674;2022-10-15T07:34:17;100438.28;;;8.98;64.64
69622;BME280;56841;55.964;37.674;2022-10-15T07:36:43;100441.91;;;8.97;64.82
69622;BME280;56841;55.964;37.674;2022-10-15T07:39:09;100448.00;;;9.08;65.00
69622;BME280;56841;55.964;37.674;2022-10-15T07:41:35;100446.50;;;9.15;64.72
69622;BME280;56841;55.964;37.674;2022-10-15T07:44:01;100451.88;;;9.23;64.32
69622;BME280;56841;55.964;37.674;2022-10-15T07:46:27;100454.25;;;9.26;63.90
69622;BME280;56841;55.964;37.674;2022-10-15T07:48:54;100456.59;;;9.19;63.88
69622;BME280;56841;55.964;37.674;2022-10-15T07:51:20;100459.00;;;9.13;63.68
69622;BME280;56841;55.964;37.674;2022-10-15T07:53:46;100467.00;;;9.01;63.72
69622;BME280;56841;55.964;37.674;2022-10-15T07:56:13;100461.47;;;9.05;63.45
69622;BME280;56841;55.964;37.674;2022-10-15T07:58:39;100464.41;;;9.21;62.99
69622;BME280;56841;55.964;37.674;2022-10-15T08:01:09;100461.75;;;9.21;62.76
69622;BME280;56841;55.964;37.674;2022-10-15T08:03:36;100455.94;;;9.27;62.45
69622;BME280;56841;55.964;37.674;2022-10-15T08:06:04;100457.16;;;9.33;62.72
69622;BME280;56841;55.964;37.674;2022-10-15T08:08:32;100459.41;;;9.37;62.24
69622;BME280;56841;55.964;37.674;2022-10-15T08:10:57;100454.97;;;9.38;62.05
69622;BME280;56841;55.964;37.674;2022-10-15T08:13:29;100456.34;;;9.22;61.90
69622;BME280;56841;55.964;37.674;2022-10-15T08:15:56;100452.88;;;9.22;61.95
69622;BME280;56841;55.964;37.674;2022-10-15T08:18:22;100457.03;;;9.34;61.91
69622;BME280;56841;55.964;37.674;2022-10-15T08:20:49;100460.34;;;9.46;61.47
69622;BME280;56841;55.964;37.674;2022-10-15T08:23:15;100454.81;;;9.49;61.48
69622;BME280;56841;55.964;37.674;2022-10-15T08:25:41;100461.06;;;9.38;61.07
69622;BME280;56841;55.964;37.674;2022-10-15T08:28:11;100463.28;;;9.33;61.38
69622;BME280;56841;55.964;37.674;2022-10-15T08:30:37;100457.88;;;9.35;60.48
69622;BME280;56841;55.964;37.674;2022-10-15T08:33:09;100462.72;;;9.39;60.56
69622;BME280;56841;55.964;37.674;2022-10-15T08:35:35;100455.94;;;9.37;60.21
69622;BME280;56841;55.964;37.674;2022-10-15T08:38:04;100459.53;;;9.36;60.17
69622;BME280;56841;55.964;37.674;2022-10-15T08:40:31;100452.59;;;9.44;60.08
69622;BME280;56841;55.964;37.674;2022-10-15T08:42:59;100463.16;;;9.44;59.48
69622;BME280;56841;55.964;37.674;2022-10-15T08:45:33;100466.88;;;9.71;59.06
69622;BME280;56841;55.964;37.674;2022-10-15T08:48:04;100466.00;;;9.80;58.61
69622;BME280;56841;55.964;37.674;2022-10-15T08:50:41;100459.53;;;9.65;58.22
69622;BME280;56841;55.964;37.674;2022-10-15T08:53:21;100466.59;;;9.64;58.39
69622;BME280;56841;55.964;37.674;2022-10-15T08:55:50;100467.97;;;9.68;58.48
69622;BME280;56841;55.964;37.674;2022-10-15T08:58:40;100463.09;;;9.83;58.49
69622;BME280;56841;55.964;37.674;2022-10-15T09:09:56;100462.66;;;9.88;58.21
69622;BME280;56841;55.964;37.674;2022-10-15T09:15:22;100459.34;;;9.76;58.07
69622;BME280;56841;55.964;37.674;2022-10-15T09:17:50;100467.97;;;9.78;57.82
69622;BME280;56841;55.964;37.674;2022-10-15T09:20:24;100459.06;;;9.89;57.11
69622;BME280;56841;55.964;37.674;2022-10-15T09:22:52;100460.88;;;9.88;57.53
69622;BME280;56841;55.964;37.674;2022-10-15T09:25:21;100460.47;;;9.73;57.59
69622;BME280;56841;55.964;37.674;2022-10-15T09:27:50;100460.16;;;9.86;57.49
69622;BME280;56841;55.964;37.674;2022-10-15T09:32:57;100463.44;;;10.08;57.03
69622;BME280;56841;55.964;37.674;2022-10-15T09:35:30;100458.84;;;10.19;56.98
69622;BME280;56841;55.964;37.674;2022-10-15T09:43:12;100460.31;;;10.87;55.57
69622;BME280;56841;55.964;37.674;2022-10-15T09:45:39;100462.41;;;10.65;56.28
69622;BME280;56841;55.964;37.674;2022-10-15T09:48:14;100461.56;;;10.65;56.34
69622;BME280;56841;55.964;37.674;2022-10-15T09:51:06;100462.94;;;10.69;56.28
69622;BME280;56841;55.964;37.674;2022-10-15T09:53:55;100456.69;;;10.70;55.94
69622;BME280;56841;55.964;37.674;2022-10-15T09:56:36;100459.50;;;10.86;55.67
69622;BME280;56841;55.964;37.674;2022-10-15T09:59:02;100456.66;;;10.98;55.52
69622;BME280;56841;55.964;37.674;2022-10-15T10:01:30;100463.06;;;10.95;55.14
69622;BME280;56841;55.964;37.674;2022-10-15T10:04:17;100455.66;;;10.99;54.94
69622;BME280;56841;55.964;37.674;2022-10-15T10:06:56;100454.44;;;11.11;54.47
69622;BME280;56841;55.964;37.674;2022-10-15T10:09:31;100455.06;;;11.05;54.59
69622;BME280;56841;55.964;37.674;2022-10-15T10:12:04;100448.78;;;10.88;54.40
69622;BME280;56841;55.964;37.674;2022-10-15T10:14:33;100458.66;;;10.86;54.03
69622;BME280;56841;55.964;37.674;2022-10-15T10:17:13;100445.50;;;10.76;53.93
69622;BME280;56841;55.964;37.674;2022-10-15T10:19:44;100453.69;;;10.55;54.24
69622;BME280;56841;55.964;37.674;2022-10-15T10:22:19;100460.69;;;10.47;54.75
69622;BME280;56841;55.964;37.674;2022-10-15T10:24:46;100455.13;;;10.50;54.79
69622;BME280;56841;55.964;37.674;2022-10-15T10:30:00;100450.94;;;10.57;54.30
69622;BME280;56841;55.964;37.674;2022-10-15T10:32:29;100447.75;;;10.53;54.51
69622;BME280;56841;55.964;37.674;2022-10-15T10:34:57;100440.97;;;10.68;54.27
69622;BME280;56841;55.964;37.674;2022-10-15T10:37:24;100442.91;;;10.66;54.27
69622;BME280;56841;55.964;37.674;2022-10-15T10:39:58;100442.19;;;10.74;54.11
69622;BME280;56841;55.964;37.674;2022-10-15T10:44:53;100437.53;;;10.86;54.19
69622;BME280;56841;55.964;37.674;2022-10-15T10:47:23;100438.47;;;11.12;53.48
69622;BME280;56841;55.964;37.674;2022-10-15T10:49:56;100441.84;;;11.41;52.80
69622;BME280;56841;55.964;37.674;2022-10-15T10:52:31;100444.44;;;11.58;52.31
69622;BME280;56841;55.964;37.674;2022-10-15T10:55:18;100438.72;;;11.45;52.23
69622;BME280;56841;55.964;37.674;2022-10-15T10:57:51;100440.63;;;11.53;52.53
69622;BME280;56841;55.964;37.674;2022-10-15T11:00:23;100444.56;;;11.75;52.20
69622;BME280;56841;55.964;37.674;2022-10-15T11:02:50;100438.25;;;11.68;51.99
69622;BME280;56841;55.964;37.674;2022-10-15T11:05:38;100441.16;;;11.56;52.44
69622;BME280;56841;55.964;37.674;2022-10-15T11:11:11;100437.47;;;11.13;53.05
69622;BME280;56841;55.964;37.674;2022-10-15T11:13:49;100442.16;;;11.02;53.58
69622;BME280;56841;55.964;37.674;2022-10-15T11:22:03;100435.81;;;10.95;54.09
69622;BME280;56841;55.964;37.674;2022-10-15T11:24:45;100443.50;;;11.06;53.94
69622;BME280;56841;55.964;37.674;2022-10-15T11:33:04;100434.28;;;11.10;54.26
69622;BME280;56841;55.964;37.674;2022-10-15T11:38:29;100434.88;;;11.04;54.59
69622;BME280;56841;55.964;37.674;2022-10-15T11:49:03;100432.00;;;10.79;55.70
69622;BME280;56841;55.964;37.674;2022-10-15T11:57:12;100437.47;;;10.96;55.62
69622;BME280;56841;55.964;37.674;2022-10-15T11:59:51;100433.59;;;10.90;55.84
69622;BME280;56841;55.964;37.674;2022-10-15T12:04:59;100435.34;;;10.81;56.26
69622;BME280;56841;55.964;37.674;2022-10-15T12:07:44;100433.25;;;11.03;56.21
69622;BME280;56841;55.964;37.674;2022-10-15T12:15:25;100431.66;;;11.46;55.32
69622;BME280;56841;55.964;37.674;2022-10-15T12:18:02;100427.84;;;11.48;55.24
69622;BME280;56841;55.964;37.674;2022-10-15T12:20:30;100428.75;;;11.57;55.13
69622;BME280;56841;55.964;37.674;2022-10-15T12:23:01;100424.75;;;11.35;55.55
69622;BME280;56841;55.964;37.674;2022-10-15T12:28:13;100414.44;;;11.24;55.73
69622;BME280;56841;55.964;37.674;2022-10-15T12:30:40;100425.53;;;11.27;55.68
69622;BME280;56841;55.964;37.674;2022-10-15T12:33:38;100423.19;;;11.42;55.42
69622;BME280;56841;55.964;37.674;2022-10-15T12:36:29;100412.69;;;11.32;55.31
69622;BME280;56841;55.964;37.674;2022-10-15T12:39:02;100422.13;;;11.35;55.27
69622;BME280;56841;55.964;37.674;2022-10-15T12:41:41;100417.59;;;11.27;55.55
69622;BME280;56841;55.964;37.674;2022-10-15T12:46:48;100422.22;;;11.25;55.82
69622;BME280;56841;55.964;37.674;2022-10-15T12:49:44;100420.94;;;11.29;55.75
69622;BME280;56841;55.964;37.674;2022-10-15T12:55:23;100421.81;;;11.38;55.86
69622;BME280;56841;55.964;37.674;2022-10-15T13:00:39;100417.47;;;11.99;54.40
69622;BME280;56841;55.964;37.674;2022-10-15T13:03:28;100420.69;;;12.61;52.51
69622;BME280;56841;55.964;37.674;2022-10-15T13:11:50;100428.84;;;12.25;52.37
69622;BME280;56841;55.964;37.674;2022-10-15T13:17:00;100421.50;;;12.45;52.28
69622;BME280;56841;55.964;37.674;2022-10-15T13:22:25;100428.06;;;12.75;51.87
69622;BME280;56841;55.964;37.674;2022-10-15T13:24:52;100423.28;;;12.02;52.98
69622;BME280;56841;55.964;37.674;2022-10-15T13:27:22;100421.91;;;11.72;53.97
69622;BME280;56841;55.964;37.674;2022-10-15T13:32:35;100417.63;;;11.79;54.13
69622;BME280;56841;55.964;37.674;2022-10-15T13:35:10;100419.19;;;12.08;53.63
69622;BME280;56841;55.964;37.674;2022-10-15T13:37:38;100419.97;;;12.35;52.91
69622;BME280;56841;55.964;37.674;2022-10-15T13:40:06;100417.78;;;12.30;52.87
69622;BME280;56841;55.964;37.674;2022-10-15T13:42:32;100410.53;;;12.32;53.14
69622;BME280;56841;55.964;37.674;2022-10-15T13:44:59;100406.22;;;12.31;53.25
69622;BME280;56841;55.964;37.674;2022-10-15T13:47:27;100405.72;;;12.27;53.20
69622;BME280;56841;55.964;37.674;2022-10-15T13:50:10;100418.78;;;11.95;53.75
69622;BME280;56841;55.964;37.674;2022-10-15T13:52:40;100418.59;;;11.70;54.47
69622;BME280;56841;55.964;37.674;2022-10-15T13:55:16;100413.66;;;11.49;54.92
69622;BME280;56841;55.964;37.674;2022-10-15T13:57:44;100425.84;;;11.42;55.45
69622;BME280;56841;55.964;37.674;2022-10-15T14:00:27;100414.19;;;11.17;56.01
69622;BME280;56841;55.964;37.674;2022-10-15T14:03:20;100427.34;;;11.09;56.31
69622;BME280;56841;55.964;37.674;2022-10-15T14:05:49;100426.59;;;10.99;56.74
69622;BME280;56841;55.964;37.674;2022-10-15T14:10:51;100431.88;;;10.81;57.42
69622;BME280;56841;55.964;37.674;2022-10-15T14:13:17;100437.81;;;10.83;57.53
69622;BME280;56841;55.964;37.674;2022-10-15T14:15:47;100431.19;;;10.79;57.79
69622;BME280;56841;55.964;37.674;2022-10-15T14:18:16;100437.59;;;10.76;58.00
69622;BME280;56841;55.964;37.674;2022-10-15T14:20:44;100439.16;;;10.69;58.21
69622;BME280;56841;55.964;37.674;2022-10-15T14:23:23;100451.28;;;10.62;58.41
69622;BME280;56841;55.964;37.674;2022-10-15T14:25:55;100437.22;;;10.43;58.79
69622;BME280;56841;55.964;37.674;2022-10-15T14:28:23;100445.75;;;10.28;59.00
69622;BME280;56841;55.964;37.674;2022-10-15T14:30:49;100443.41;;;10.15;59.57
69622;BME280;56841;55.964;37.674;2022-10-15T14:36:10;100454.03;;;9.95;59.71
69622;BME280;56841;55.964;37.674;2022-10-15T14:38:36;100451.28;;;9.87;60.19
69622;BME280;56841;55.964;37.674;2022-10-15T14:41:28;100455.75;;;9.77;60.35
69622;BME280;56841;55.964;37.674;2022-10-15T14:46:40;100453.00;;;9.69;60.95
69622;BME280;56841;55.964;37.674;2022-10-15T14:49:31;100458.53;;;9.66;61.20
69622;BME280;56841;55.964;37.674;2022-10-15T14:54:33;100462.44;;;9.52;61.59
69622;BME280;56841;55.964;37.674;2022-10-15T14:57:01;100461.88;;;9.48;61.76
69622;BME280;56841;55.964;37.674;2022-10-15T14:59:31;100462.72;;;9.39;62.24
69622;BME280;56841;55.964;37.674;2022-10-15T15:01:59;100457.88;;;9.35;62.46
69622;BME280;56841;55.964;37.674;2022-10-15T15:04:36;100463.03;;;9.27;62.68
69622;BME280;56841;55.964;37.674;2022-10-15T15:07:09;100464.13;;;9.24;62.96
69622;BME280;56841;55.964;37.674;2022-10-15T15:09:36;100468.97;;;9.19;62.83
69622;BME280;56841;55.964;37.674;2022-10-15T15:12:04;100466.75;;;9.14;63.07
69622;BME280;56841;55.964;37.674;2022-10-15T15:14:31;100474.38;;;9.08;63.03
69622;BME280;56841;55.964;37.674;2022-10-15T15:16:57;100471.16;;;9.04;63.32
69622;BME280;56841;55.964;37.674;2022-10-15T15:19:23;100472.53;;;8.98;63.54
69622;BME280;56841;55.964;37.674;2022-10-15T15:21:48;100466.59;;;8.96;63.52
69622;BME280;56841;55.964;37.674;2022-10-15T15:24:14;100473.22;;;8.91;63.59
69622;BME280;56841;55.964;37.674;2022-10-15T15:26:40;100475.28;;;8.87;63.82
69622;BME280;56841;55.964;37.674;2022-10-15T15:29:12;100483.16;;;8.77;63.88
69622;BME280;56841;55.964;37.674;2022-10-15T15:31:38;100479.97;;;8.74;64.21
69622;BME280;56841;55.964;37.674;2022-10-15T15:34:04;100481.06;;;8.71;64.31
69622;BME280;56841;55.964;37.674;2022-10-15T15:36:30;100484.69;;;8.70;64.52
69622;BME280;56841;55.964;37.674;2022-10-15T15:38:56;100481.47;;;8.67;64.47
69622;BME280;56841;55.964;37.674;2022-10-15T15:41:23;100485.34;;;8.63;64.50
69622;BME280;56841;55.964;37.674;2022-10-15T15:43:51;100488.41;;;8.58;64.74
69622;BME280;56841;55.964;37.674;2022-10-15T15:46:17;100480.88;;;8.53;64.94
69622;BME280;56841;55.964;37.674;2022-10-15T15:48:43;100477.56;;;8.51;65.07
69622;BME280;56841;55.964;37.674;2022-10-15T15:53:40;100481.66;;;8.44;65.22
69622;BME280;56841;55.964;37.674;2022-10-15T15:56:06;100479.34;;;8.41;65.31
69622;BME280;56841;55.964;37.674;2022-10-15T15:58:32;100481.25;;;8.39;65.40
69622;BME280;56841;55.964;37.674;2022-10-15T16:00:58;100480.50;;;8.37;65.55
69622;BME280;56841;55.964;37.674;2022-10-15T16:03:24;100481.06;;;8.31;65.98
69622;BME280;56841;55.964;37.674;2022-10-15T16:05:49;100477.13;;;8.25;65.98
69622;BME280;56841;55.964;37.674;2022-10-15T16:08:15;100490.81;;;8.19;66.23
69622;BME280;56841;55.964;37.674;2022-10-15T16:10:41;100482.50;;;8.14;66.66
69622;BME280;56841;55.964;37.674;2022-10-15T16:13:07;100489.94;;;8.09;66.71
69622;BME280;56841;55.964;37.674;2022-10-15T16:15:33;100498.78;;;8.08;66.91
69622;BME280;56841;55.964;37.674;2022-10-15T16:17:59;100492.97;;;8.04;67.08
69622;BME280;56841;55.964;37.674;2022-10-15T16:20:24;100494.88;;;8.02;67.01
69622;BME280;56841;55.964;37.674;2022-10-15T16:22:51;100501.09;;;8.01;67.52
69622;BME280;56841;55.964;37.674;2022-10-15T16:25:18;100501.38;;;7.98;67.69
69622;BME280;56841;55.964;37.674;2022-10-15T16:27:44;100494.19;;;8.00;67.79
69622;BME280;56841;55.964;37.674;2022-10-15T16:30:14;100498.00;;;7.96;67.66
69622;BME280;56841;55.964;37.674;2022-10-15T16:32:40;100499.38;;;7.91;67.82
69622;BME280;56841;55.964;37.674;2022-10-15T16:35:06;100508.94;;;7.92;68.04
69622;BME280;56841;55.964;37.674;2022-10-15T16:37:32;100509.44;;;7.86;68.13
69622;BME280;56841;55.964;37.674;2022-10-15T16:39:58;100497.13;;;7.86;68.72
69622;BME280;56841;55.964;37.674;2022-10-15T16:42:24;100507.06;;;7.82;68.42
69622;BME280;56841;55.964;37.674;2022-10-15T16:44:49;100502.78;;;7.81;68.74
69622;BME280;56841;55.964;37.674;2022-10-15T16:47:17;100517.00;;;7.79;68.72
69622;BME280;56841;55.964;37.674;2022-10-15T16:49:43;100509.97;;;7.79;68.71
69622;BME280;56841;55.964;37.674;2022-10-15T16:52:09;100506.06;;;7.74;68.89
69622;BME280;56841;55.964;37.674;2022-10-15T16:54:35;100511.56;;;7.71;69.19
69622;BME280;56841;55.964;37.674;2022-10-15T16:57:01;100513.22;;;7.72;69.36
69622;BME280;56841;55.964;37.674;2022-10-15T16:59:27;100507.38;;;7.68;69.46
69622;BME280;56841;55.964;37.674;2022-10-15T17:01:53;100516.25;;;7.67;69.34
69622;BME280;56841;55.964;37.674;2022-10-15T17:04:19;100515.50;;;7.65;69.51
69622;BME280;56841;55.964;37.674;2022-10-15T17:06:45;100514.69;;;7.65;69.62
69622;BME280;56841;55.964;37.674;2022-10-15T17:09:11;100513.03;;;7.64;70.52
69622;BME280;56841;55.964;37.674;2022-10-15T17:11:39;100523.41;;;7.65;70.33
69622;BME280;56841;55.964;37.674;2022-10-15T17:14:08;100517.22;;;7.66;70.18
69622;BME280;56841;55.964;37.674;2022-10-15T17:16:42;100522.56;;;7.65;70.29
69622;BME280;56841;55.964;37.674;2022-10-15T17:19:09;100528.22;;;7.60;70.32
69622;BME280;56841;55.964;37.674;2022-10-15T17:21:35;100523.22;;;7.57;70.40
69622;BME280;56841;55.964;37.674;2022-10-15T17:24:03;100526.66;;;7.57;70.63
69622;BME280;56841;55.964;37.674;2022-10-15T17:26:31;100525.94;;;7.55;70.48
69622;BME280;56841;55.964;37.674;2022-10-15T17:28:58;100532.19;;;7.54;70.71
69622;BME280;56841;55.964;37.674;2022-10-15T17:31:26;100535.88;;;7.52;70.85
69622;BME280;56841;55.964;37.674;2022-10-15T17:33:57;100533.25;;;7.52;70.92
69622;BME280;56841;55.964;37.674;2022-10-15T17:36:25;100535.06;;;7.51;70.98
69622;BME280;56841;55.964;37.674;2022-10-15T17:38:54;100543.91;;;7.50;70.89
69622;BME280;56841;55.964;37.674;2022-10-15T17:41:22;100537.69;;;7.51;71.24
69622;BME280;56841;55.964;37.674;2022-10-15T17:43:49;100532.56;;;7.50;70.98
69622;BME280;56841;55.964;37.674;2022-10-15T17:46:18;100540.56;;;7.48;71.19
69622;BME280;56841;55.964;37.674;2022-10-15T17:48:45;100538.16;;;7.45;71.35
69622;BME280;56841;55.964;37.674;2022-10-15T17:51:14;100539.38;;;7.41;71.60
69622;BME280;56841;55.964;37.674;2022-10-15T17:53:41;100537.97;;;7.37;71.94
69622;BME280;56841;55.964;37.674;2022-10-15T17:56:16;100545.28;;;7.33;72.18
69622;BME280;56841;55.964;37.674;2022-10-15T17:58:45;100546.09;;;7.34;72.41
69622;BME280;56841;55.964;37.674;2022-10-15T18:01:16;100551.50;;;7.32;72.07
69622;BME280;56841;55.964;37.674;2022-10-15T18:03:44;100548.03;;;7.32;72.22
69622;BME280;56841;55.964;37.674;2022-10-15T18:06:12;100550.66;;;7.32;72.23
69622;BME280;56841;55.964;37.674;2022-10-15T18:08:39;100559.22;;;7.34;72.25
69622;BME280;56841;55.964;37.674;2022-10-15T18:11:06;100553.72;;;7.37;72.18
69622;BME280;56841;55.964;37.674;2022-10-15T18:13:32;100554.81;;;7.34;72.06
69622;BME280;56841;55.964;37.674;2022-10-15T18:15:58;100551.34;;;7.34;71.99
69622;BME280;56841;55.964;37.674;2022-10-15T18:18:29;100557.56;;;7.33;72.10
69622;BME280;56841;55.964;37.674;2022-10-15T18:20:58;100556.75;;;7.32;72.11
69622;BME280;56841;55.964;37.674;2022-10-15T18:23:24;100560.59;;;7.28;72.34
69622;BME280;56841;55.964;37.674;2022-10-15T18:26:23;100559.63;;;7.29;72.38
69622;BME280;56841;55.964;37.674;2022-10-15T18:28:50;100559.72;;;7.28;72.30
69622;BME280;56841;55.964;37.674;2022-10-15T18:31:17;100553.53;;;7.29;72.08
69622;BME280;56841;55.964;37.674;2022-10-15T18:33:46;100564.72;;;7.31;72.26
69622;BME280;56841;55.964;37.674;2022-10-15T18:36:16;100565.94;;;7.27;72.48
69622;BME280;56841;55.964;37.674;2022-10-15T18:38:43;100564.28;;;7.26;72.37
69622;BME280;56841;55.964;37.674;2022-10-15T18:41:34;100559.84;;;7.26;72.47
69622;BME280;56841;55.964;37.674;2022-10-15T18:44:10;100562.63;;;7.25;72.52
69622;BME280;56841;55.964;37.674;2022-10-15T18:46:37;100568.13;;;7.22;72.48
69622;BME280;56841;55.964;37.674;2022-10-15T18:49:06;100573.47;;;7.20;72.51
69622;BME280;56841;55.964;37.674;2022-10-15T18:51:33;100571.91;;;7.18;72.55
69622;BME280;56841;55.964;37.674;2022-10-15T18:54:00;100575.66;;;7.15;72.65
69622;BME280;56841;55.964;37.674;2022-10-15T18:56:27;100580.78;;;7.17;72.41
69622;BME280;56841;55.964;37.674;2022-10-15T18:58:54;100574.81;;;7.15;72.22
69622;BME280;56841;55.964;37.674;2022-10-15T19:01:37;100573.97;;;7.14;72.09
69622;BME280;56841;55.964;37.674;2022-10-15T19:04:05;100581.00;;;7.13;72.18
69622;BME280;56841;55.964;37.674;2022-10-15T19:06:35;100571.72;;;7.09;72.20
69622;BME280;56841;55.964;37.674;2022-10-15T19:09:03;100580.31;;;7.11;72.00
69622;BME280;56841;55.964;37.674;2022-10-15T19:11:32;100577.78;;;7.10;71.84
69622;BME280;56841;55.964;37.674;2022-10-15T19:14:01;100576.59;;;7.14;71.48
69622;BME280;56841;55.964;37.674;2022-10-15T19:16:27;100581.00;;;7.13;70.99
69622;BME280;56841;55.964;37.674;2022-10-15T19:18:59;100580.19;;;7.13;70.99
69622;BME280;56841;55.964;37.674;2022-10-15T19:21:25;100583.88;;;7.10;71.14
69622;BME280;56841;55.964;37.674;2022-10-15T19:23:54;100580.56;;;7.08;71.36
69622;BME280;56841;55.964;37.674;2022-10-15T19:26:20;100593.09;;;7.05;71.21
69622;BME280;56841;55.964;37.674;2022-10-15T19:28:46;100587.84;;;7.05;71.22
69622;BME280;56841;55.964;37.674;2022-10-15T19:31:21;100597.75;;;7.01;71.16
69622;BME280;56841;55.964;37.674;2022-10-15T19:33:48;100594.25;;;7.01;70.98
69622;BME280;56841;55.964;37.674;2022-10-15T19:36:31;100596.06;;;7.00;70.79
69622;BME280;56841;55.964;37.674;2022-10-15T19:39:16;100600.38;;;7.01;70.59
69622;BME280;56841;55.964;37.674;2022-10-15T19:41:43;100605.41;;;7.04;70.04
69622;BME280;56841;55.964;37.674;2022-10-15T19:44:11;100603.59;;;7.05;69.61
69622;BME280;56841;55.964;37.674;2022-10-15T19:46:39;100607.06;;;7.05;69.58
69622;BME280;56841;55.964;37.674;2022-10-15T19:49:06;100606.31;;;7.03;69.21
69622;BME280;56841;55.964;37.674;2022-10-15T19:51:33;100609.53;;;7.07;68.89
69622;BME280;56841;55.964;37.674;2022-10-15T19:53:59;100602.63;;;7.06;68.67
69622;BME280;56841;55.964;37.674;2022-10-15T19:56:28;100606.91;;;7.07;68.46
69622;BME280;56841;55.964;37.674;2022-10-15T19:59:00;100608.03;;;7.04;68.37
69622;BME280;56841;55.964;37.674;2022-10-15T20:01:29;100613.63;;;7.00;68.43
69622;BME280;56841;55.964;37.674;2022-10-15T20:03:59;100614.44;;;7.00;68.47
69622;BME280;56841;55.964;37.674;2022-10-15T20:06:25;100619.94;;;6.97;68.25
69622;BME280;56841;55.964;37.674;2022-10-15T20:08:51;100618.03;;;6.99;68.10
69622;BME280;56841;55.964;37.674;2022-10-15T20:11:17;100620.19;;;6.94;68.10
69622;BME280;56841;55.964;37.674;2022-10-15T20:13:44;100620.19;;;6.94;67.92
69622;BME280;56841;55.964;37.674;2022-10-15T20:16:11;100619.47;;;6.92;68.07
69622;BME280;56841;55.964;37.674;2022-10-15T20:18:41;100622.94;;;6.93;67.58
69622;BME280;56841;55.964;37.674;2022-10-15T20:21:12;100623.53;;;6.96;67.44
69622;BME280;56841;55.964;37.674;2022-10-15T20:23:39;100624.72;;;6.92;67.53
69622;BME280;56841;55.964;37.674;2022-10-15T20:26:08;100630.94;;;6.91;67.30
69622;BME280;56841;55.964;37.674;2022-10-15T20:28:35;100627.47;;;6.91;67.37
69622;BME280;56841;55.964;37.674;2022-10-15T20:31:10;100627.47;;;6.91;67.10
69622;BME280;56841;55.964;37.674;2022-10-15T20:33:39;100631.75;;;6.92;67.14
69622;BME280;56841;55.964;37.674;2022-10-15T20:36:07;100632.84;;;6.89;67.04
69622;BME280;56841;55.964;37.674;2022-10-15T20:38:34;100634.50;;;6.90;66.90
69622;BME280;56841;55.964;37.674;2022-10-15T20:41:06;100641.44;;;6.91;66.93
69622;BME280;56841;55.964;37.674;2022-10-15T20:43:32;100642.28;;;6.92;66.74
69622;BME280;56841;55.964;37.674;2022-10-15T20:45:57;100642.28;;;6.92;66.67
69622;BME280;56841;55.964;37.674;2022-10-15T20:48:24;100644.16;;;6.89;66.53
69622;BME280;56841;55.964;37.674;2022-10-15T20:50:52;100651.22;;;6.89;66.45
69622;BME280;56841;55.964;37.674;2022-10-15T20:53:20;100647.84;;;6.87;66.27
69622;BME280;56841;55.964;37.674;2022-10-15T20:55:47;100655.72;;;6.87;66.44
69622;BME280;56841;55.964;37.674;2022-10-15T20:58:12;100659.09;;;6.89;66.17
69622;BME280;56841;55.964;37.674;2022-10-15T21:00:39;100651.94;;;6.91;65.89
69622;BME280;56841;55.964;37.674;2022-10-15T21:03:05;100659.81;;;6.91;65.93
69622;BME280;56841;55.964;37.674;2022-10-15T21:05:31;100656.38;;;6.91;65.58
69622;BME280;56841;55.964;37.674;2022-10-15T21:07:57;100662.44;;;6.91;65.84
69622;BME280;56841;55.964;37.674;2022-10-15T21:10:23;100658.84;;;6.92;65.59
69622;BME280;56841;55.964;37.674;2022-10-15T21:12:49;100666.00;;;6.90;65.62
69622;BME280;56841;55.964;37.674;2022-10-15T21:15:15;100657.44;;;6.88;65.93
69622;BME280;56841;55.964;37.674;2022-10-15T21:17:41;100662.78;;;6.86;65.80
69622;BME280;56841;55.964;37.674;2022-10-15T21:20:07;100664.47;;;6.87;65.63
69622;BME280;56841;55.964;37.674;2022-10-15T21:22:36;100667.94;;;6.88;65.59
69622;BME280;56841;55.964;37.674;2022-10-15T21:25:02;100662.69;;;6.88;65.50
69622;BME280;56841;55.964;37.674;2022-10-15T21:27:28;100663.50;;;6.88;65.53
69622;BME280;56841;55.964;37.674;2022-10-15T21:29:54;100672.69;;;6.83;65.62
69622;BME280;56841;55.964;37.674;2022-10-15T21:32:20;100664.56;;;6.86;65.29
69622;BME280;56841;55.964;37.674;2022-10-15T21:34:46;100665.53;;;6.85;65.40
69622;BME280;56841;55.964;37.674;2022-10-15T21:37:12;100670.28;;;6.80;65.50
69622;BME280;56841;55.964;37.674;2022-10-15T21:39:37;100671.16;;;6.80;65.59